Time;durP1;ratioP1;P1;durP2;ratioP2;P2;SDS_P1;SDS_P2;PMS_P1;PMS_P2;Temp;Humidity;BMP_temperature;BMP_pressure;BME280_temperature;BME280_humidity;BME280_pressure;Samples;Min_cycle;Max_cycle;Signal;HPM_P1;HPM_P2
2023/07/22 00:02:00;;;;;;;;;;;;;;;15.75;52.31;100424.44;5018137;28;6871;-72
2023/07/22 00:04:27;;;;;;;;;;;;;;;15.78;52.49;100427.09;5016130;28;7113;-72
2023/07/22 00:06:52;;;;;;;;;;;;;;;15.81;52.33;100424.59;5003519;28;6807;-72
2023/07/22 00:09:18;;;;;;;;;;;;;;;15.83;51.71;100422.91;5015543;28;6779;-72
2023/07/22 00:11:43;;;;;;;;;;;;;;;15.87;52.11;100423.88;5018231;28;6946;-72
2023/07/22 00:14:09;;;;;;;;;;;;;;;15.88;51.98;100423.94;5018934;28;7201;-72
2023/07/22 00:16:34;;;;;;;;;;;;;;;15.89;52.12;100420.50;5017451;28;6780;-72
2023/07/22 00:19:00;;;;;;;;;;;;;;;15.90;52.48;100418.81;5002775;28;6929;-72
2023/07/22 00:21:26;;;;;;;;;;;;;;;15.92;52.75;100419.75;5002304;28;6784;-72
2023/07/22 00:23:51;;;;;;;;;;;;;;;15.93;52.00;100417.22;5001906;28;6941;-72
2023/07/22 00:26:17;;;;;;;;;;;;;;;15.97;52.06;100420.72;5000560;28;6939;-72
2023/07/22 00:28:43;;;;;;;;;;;;;;;15.99;51.78;100413.03;5003922;28;6961;-72
2023/07/22 00:31:09;;;;;;;;;;;;;;;16.02;52.26;100413.09;5002081;28;7166;-72
2023/07/22 00:33:34;;;;;;;;;;;;;;;16.01;52.29;100420.00;5000048;28;7635;-72
2023/07/22 00:36:00;;;;;;;;;;;;;;;16.01;52.42;100417.41;5002643;28;6780;-72
2023/07/22 00:38:26;;;;;;;;;;;;;;;16.00;52.03;100420.84;5014633;28;6969;-72
2023/07/22 00:40:52;;;;;;;;;;;;;;;16.01;51.61;100414.81;5015749;28;7183;-72
2023/07/22 00:43:18;;;;;;;;;;;;;;;16.00;51.91;100420.84;5016316;28;6867;-72
2023/07/22 00:45:43;;;;;;;;;;;;;;;15.98;51.80;100425.06;5017903;28;6807;-72
2023/07/22 00:48:09;;;;;;;;;;;;;;;15.95;51.78;100420.72;5000679;28;6856;-72
2023/07/22 00:50:35;;;;;;;;;;;;;;;15.91;52.11;100418.84;4996982;28;6871;-72
2023/07/22 00:53:00;;;;;;;;;;;;;;;15.89;52.28;100412.75;4998160;28;6780;-72
2023/07/22 00:55:27;;;;;;;;;;;;;;;15.90;52.58;100416.22;5005766;28;6799;-72
2023/07/22 00:57:54;;;;;;;;;;;;;;;15.91;52.31;100412.84;5001366;28;6883;-72
2023/07/22 01:00:20;;;;;;;;;;;;;;;15.92;52.63;100414.59;4999039;28;7242;-72
2023/07/22 01:02:46;;;;;;;;;;;;;;;15.92;52.19;100404.25;5016545;28;6808;-72
2023/07/22 01:05:12;;;;;;;;;;;;;;;15.92;51.74;100401.66;4987760;28;6817;-72
2023/07/22 01:07:38;;;;;;;;;;;;;;;15.91;52.51;100405.94;4981893;28;6993;-72
2023/07/22 01:10:05;;;;;;;;;;;;;;;15.90;52.16;100395.56;5016735;28;6784;-72
2023/07/22 01:12:31;;;;;;;;;;;;;;;15.88;52.05;100395.50;5003750;28;6851;-72
2023/07/22 01:14:58;;;;;;;;;;;;;;;15.90;52.22;100396.44;5000784;28;6871;-72
2023/07/22 01:17:24;;;;;;;;;;;;;;;15.91;52.31;100397.31;5001357;28;8589;-72
2023/07/22 01:19:50;;;;;;;;;;;;;;;15.92;52.34;100387.00;5001791;28;7046;-72
2023/07/22 01:22:16;;;;;;;;;;;;;;;15.93;52.19;100388.78;5014234;28;6792;-72
2023/07/22 01:24:42;;;;;;;;;;;;;;;15.95;52.86;100384.53;5003610;28;6903;-72
2023/07/22 01:27:09;;;;;;;;;;;;;;;16.00;52.02;100387.22;5001844;28;7220;-72
2023/07/22 01:29:35;;;;;;;;;;;;;;;16.02;52.30;100382.06;4996967;28;8563;-72
2023/07/22 01:32:01;;;;;;;;;;;;;;;16.05;52.65;100390.78;4997388;28;6963;-72
2023/07/22 01:34:26;;;;;;;;;;;;;;;16.08;52.60;100390.00;5019939;28;7091;-72
2023/07/22 01:36:52;;;;;;;;;;;;;;;16.13;52.49;100393.59;4998121;28;7266;-72
2023/07/22 01:39:21;;;;;;;;;;;;;;;16.17;52.51;100390.22;5020379;28;6855;-72
2023/07/22 01:41:47;;;;;;;;;;;;;;;16.20;51.99;100387.72;5017352;28;7352;-72
2023/07/22 01:44:14;;;;;;;;;;;;;;;16.23;52.36;100390.41;5005778;28;6998;-72
2023/07/22 01:46:39;;;;;;;;;;;;;;;16.26;52.10;100384.41;5002312;28;6800;-72
2023/07/22 01:49:09;;;;;;;;;;;;;;;16.26;52.08;100383.53;5015652;28;6800;-72
2023/07/22 01:51:37;;;;;;;;;;;;;;;16.26;52.13;100384.41;4996147;28;7050;-72
2023/07/22 01:54:03;;;;;;;;;;;;;;;16.27;51.98;100383.56;5002398;28;6815;-72
2023/07/22 01:56:28;;;;;;;;;;;;;;;16.28;52.22;100379.28;5018534;28;6796;-72
2023/07/22 01:58:55;;;;;;;;;;;;;;;16.29;52.63;100381.91;5019420;28;6859;-72
2023/07/22 02:01:20;;;;;;;;;;;;;;;16.31;52.70;100380.22;5002374;28;6862;-72
2023/07/22 02:03:46;;;;;;;;;;;;;;;16.32;52.50;100375.91;5000478;28;8573;-72
2023/07/22 02:06:12;;;;;;;;;;;;;;;16.33;52.26;100377.69;4999666;28;6925;-73
2023/07/22 02:08:38;;;;;;;;;;;;;;;16.33;52.09;100375.09;5010318;28;7334;-73
2023/07/22 02:11:05;;;;;;;;;;;;;;;16.32;52.21;100375.91;5012896;28;6864;-73
2023/07/22 02:13:31;;;;;;;;;;;;;;;16.33;52.57;100372.50;4998899;28;7002;-73
2023/07/22 02:15:57;;;;;;;;;;;;;;;16.32;52.34;100373.31;4993421;28;6784;-73
2023/07/22 02:18:22;;;;;;;;;;;;;;;16.32;52.19;100373.31;5010554;28;6848;-73
2023/07/22 02:20:48;;;;;;;;;;;;;;;16.31;52.53;100374.16;4996600;28;8996;-72
2023/07/22 02:23:14;;;;;;;;;;;;;;;16.28;52.44;100367.22;4998560;28;7055;-73
2023/07/22 02:25:39;;;;;;;;;;;;;;;16.26;52.25;100363.72;5011360;28;6875;-72
2023/07/22 02:28:06;;;;;;;;;;;;;;;16.23;52.79;100367.13;4999345;28;6791;-71
2023/07/22 02:30:34;;;;;;;;;;;;;;;16.23;52.43;100374.00;4999484;28;7006;-71
2023/07/22 02:33:01;;;;;;;;;;;;;;;16.20;52.89;100358.41;5001035;28;6971;-71
2023/07/22 02:35:27;;;;;;;;;;;;;;;16.18;53.11;100368.69;5019945;28;6948;-71
2023/07/22 02:37:53;;;;;;;;;;;;;;;16.15;53.26;100371.22;4990359;28;6898;-71
2023/07/22 02:40:18;;;;;;;;;;;;;;;16.16;52.62;100372.09;4997896;28;6799;-71
2023/07/22 02:42:44;;;;;;;;;;;;;;;16.13;53.07;100372.91;5014435;28;6780;-71
2023/07/22 02:45:10;;;;;;;;;;;;;;;16.12;53.25;100365.97;5014874;28;6788;-71
2023/07/22 02:47:35;;;;;;;;;;;;;;;16.12;53.22;100363.38;5013886;28;6816;-71
2023/07/22 02:50:01;;;;;;;;;;;;;;;16.15;53.80;100367.75;5001431;28;7392;-71
2023/07/22 02:52:26;;;;;;;;;;;;;;;16.18;53.24;100366.13;5014576;28;7310;-71
2023/07/22 02:55:13;;;;;;;;;;;;;;;16.23;53.49;100363.66;4996534;28;7183;-71
2023/07/22 02:57:40;;;;;;;;;;;;;;;16.28;53.12;100366.34;5016859;28;6807;-71
2023/07/22 03:00:07;;;;;;;;;;;;;;;16.33;53.56;100369.94;4999090;28;7142;-71
2023/07/22 03:02:34;;;;;;;;;;;;;;;16.37;53.32;100371.75;4997622;28;7142;-71
2023/07/22 03:04:59;;;;;;;;;;;;;;;16.41;53.29;100367.50;5001835;28;6812;-71
2023/07/22 03:07:27;;;;;;;;;;;;;;;16.45;53.27;100370.22;5002685;28;7128;-71
2023/07/22 03:09:53;;;;;;;;;;;;;;;16.51;53.25;100372.94;4997494;28;6979;-72
2023/07/22 03:12:18;;;;;;;;;;;;;;;16.55;53.09;100371.28;4998997;28;6933;-72
2023/07/22 03:14:43;;;;;;;;;;;;;;;16.60;53.25;100369.69;5011978;28;6795;-71
2023/07/22 03:17:09;;;;;;;;;;;;;;;16.65;53.16;100377.56;4997678;28;6808;-71
2023/07/22 03:19:35;;;;;;;;;;;;;;;16.68;52.82;100376.75;5012978;28;6780;-71
2023/07/22 03:22:01;;;;;;;;;;;;;;;16.71;52.92;100382.88;4994278;28;7107;-71
2023/07/22 03:24:26;;;;;;;;;;;;;;;16.75;52.14;100378.63;5013249;28;7243;-71
2023/07/22 03:26:52;;;;;;;;;;;;;;;16.79;52.34;100386.47;5016256;28;7245;-71
2023/07/22 03:29:17;;;;;;;;;;;;;;;16.83;52.40;100381.41;5015137;28;6946;-71
2023/07/22 03:31:43;;;;;;;;;;;;;;;16.87;52.93;100386.69;4999220;28;6796;-72
2023/07/22 03:34:08;;;;;;;;;;;;;;;16.90;52.74;100389.31;5015054;28;7082;-71
2023/07/22 03:36:33;;;;;;;;;;;;;;;16.95;52.35;100392.00;5009236;28;6835;-70
2023/07/22 03:38:59;;;;;;;;;;;;;;;16.99;52.37;100388.63;4980465;28;6956;-71
2023/07/22 03:41:25;;;;;;;;;;;;;;;17.01;51.87;100387.00;4985446;28;6956;-72
2023/07/22 03:43:50;;;;;;;;;;;;;;;17.02;52.06;100382.69;5012819;28;6963;-71
2023/07/22 03:46:16;;;;;;;;;;;;;;;17.02;52.19;100387.88;5009803;28;8710;-71
2023/07/22 03:48:41;;;;;;;;;;;;;;;17.00;51.96;100382.69;4985266;28;6810;-69
2023/07/22 03:51:07;;;;;;;;;;;;;;;16.98;52.11;100381.72;5012538;28;6837;-69
2023/07/22 03:53:32;;;;;;;;;;;;;;;16.94;51.89;100383.34;5010907;28;7078;-70
2023/07/22 03:55:58;;;;;;;;;;;;;;;16.93;51.61;100383.34;5011327;28;7040;-70
2023/07/22 03:58:23;;;;;;;;;;;;;;;16.90;51.81;100386.72;4999122;28;6935;-70
2023/07/22 04:00:49;;;;;;;;;;;;;;;16.89;51.62;100381.50;5000559;28;6863;-70
2023/07/22 04:03:15;;;;;;;;;;;;;;;16.89;51.45;100385.00;4983388;28;7022;-70
2023/07/22 04:05:40;;;;;;;;;;;;;;;16.91;52.14;100385.03;5008669;28;7290;-70
2023/07/22 04:08:06;;;;;;;;;;;;;;;16.93;51.77;100384.19;5000647;28;7228;-70
2023/07/22 04:10:31;;;;;;;;;;;;;;;16.96;51.66;100382.53;5001403;28;8119;-70
2023/07/22 04:12:57;;;;;;;;;;;;;;;16.98;52.27;100386.03;4993276;28;7045;-70
2023/07/22 04:15:22;;;;;;;;;;;;;;;16.97;51.73;100390.31;5014806;28;7236;-70
2023/07/22 04:17:48;;;;;;;;;;;;;;;16.99;51.92;100388.63;4999463;28;6864;-70
2023/07/22 04:20:14;;;;;;;;;;;;;;;16.99;51.82;100388.63;4996319;28;6843;-70
2023/07/22 04:22:39;;;;;;;;;;;;;;;17.00;51.49;100393.03;4999669;28;6776;-70
2023/07/22 04:25:05;;;;;;;;;;;;;;;17.00;51.36;100384.34;5012143;28;7062;-71
2023/07/22 04:27:31;;;;;;;;;;;;;;;17.01;51.85;100386.13;4996360;28;7067;-70
2023/07/22 04:29:56;;;;;;;;;;;;;;;17.02;51.22;100383.56;4993932;28;6782;-70
2023/07/22 04:32:22;;;;;;;;;;;;;;;17.08;51.81;100383.69;5009483;28;7163;-70
2023/07/22 04:34:47;;;;;;;;;;;;;;;17.13;51.34;100380.34;4993791;28;6805;-71
2023/07/22 04:37:13;;;;;;;;;;;;;;;17.18;51.63;100373.53;4994968;28;6800;-70
2023/07/22 04:39:38;;;;;;;;;;;;;;;17.22;51.22;100375.34;4974161;28;6991;-71
2023/07/22 04:42:04;;;;;;;;;;;;;;;17.27;51.57;100372.84;5011865;28;6961;-71
2023/07/22 04:44:29;;;;;;;;;;;;;;;17.30;51.43;100378.09;4997474;28;6943;-72
2023/07/22 04:46:55;;;;;;;;;;;;;;;17.34;51.38;100369.53;4995128;28;6784;-71
2023/07/22 04:49:21;;;;;;;;;;;;;;;17.39;51.03;100380.00;4996734;28;7203;-71
2023/07/22 04:51:48;;;;;;;;;;;;;;;17.43;51.37;100374.03;4980011;28;6986;-71
2023/07/22 04:54:14;;;;;;;;;;;;;;;17.55;51.18;100381.16;4978311;28;6824;-71
2023/07/22 04:56:41;;;;;;;;;;;;;;;17.75;51.90;100378.91;4992224;28;6800;-71
2023/07/22 04:59:06;;;;;;;;;;;;;;;18.02;51.73;100380.25;4994734;28;8570;-71
2023/07/22 05:01:32;;;;;;;;;;;;;;;18.30;51.09;100372.97;5007230;28;7427;-71
2023/07/22 05:03:58;;;;;;;;;;;;;;;18.56;51.03;100377.69;4987057;28;6792;-71
2023/07/22 05:06:24;;;;;;;;;;;;;;;18.84;50.95;100378.09;5012007;28;6856;-70
2023/07/22 05:08:50;;;;;;;;;;;;;;;19.07;50.18;100373.19;4984326;28;6830;-70
2023/07/22 05:11:16;;;;;;;;;;;;;;;19.25;49.21;100367.38;5003240;28;6807;-70
2023/07/22 05:13:42;;;;;;;;;;;;;;;19.36;48.29;100372.72;4983351;28;7043;-70
2023/07/22 05:16:07;;;;;;;;;;;;;;;19.52;48.67;100378.94;4988949;28;7185;-70
2023/07/22 05:18:33;;;;;;;;;;;;;;;19.67;48.48;100375.63;4996422;28;6788;-70
2023/07/22 05:20:58;;;;;;;;;;;;;;;19.86;48.31;100373.22;4993919;28;7520;-70
2023/07/22 05:23:24;;;;;;;;;;;;;;;20.07;47.98;100377.72;4996360;28;6846;-70
2023/07/22 05:25:53;;;;;;;;;;;;;;;20.22;47.44;100377.00;4993692;28;6772;-70
2023/07/22 05:28:19;;;;;;;;;;;;;;;20.30;46.71;100369.25;4998492;28;6824;-70
2023/07/22 05:30:45;;;;;;;;;;;;;;;20.35;46.34;100375.34;4998184;28;6795;-70
2023/07/22 05:33:10;;;;;;;;;;;;;;;20.35;46.38;100371.91;4987101;28;7199;-70
2023/07/22 05:35:36;;;;;;;;;;;;;;;20.28;46.01;100378.78;4985663;28;6799;-70
2023/07/22 05:38:04;;;;;;;;;;;;;;;20.24;46.16;100379.63;4993563;28;6824;-70
2023/07/22 05:40:29;;;;;;;;;;;;;;;20.17;45.40;100383.00;5012320;28;7250;-69
2023/07/22 05:42:55;;;;;;;;;;;;;;;20.08;45.85;100376.03;5009663;28;6799;-70
2023/07/22 05:45:20;;;;;;;;;;;;;;;19.97;45.77;100376.81;4994031;28;6940;-70
2023/07/22 05:47:46;;;;;;;;;;;;;;;19.88;45.76;100383.59;4997319;28;6799;-70
2023/07/22 05:50:11;;;;;;;;;;;;;;;19.78;46.02;100378.31;5012656;28;7141;-70
2023/07/22 05:52:37;;;;;;;;;;;;;;;19.75;45.95;100380.88;4991515;28;7038;-70
2023/07/22 05:55:03;;;;;;;;;;;;;;;19.73;46.56;100382.63;5009381;28;7473;-70
2023/07/22 05:57:28;;;;;;;;;;;;;;;19.75;46.47;100380.88;4977264;28;7668;-70
2023/07/22 05:59:54;;;;;;;;;;;;;;;19.84;46.81;100380.97;5000154;28;7138;-70
2023/07/22 06:02:19;;;;;;;;;;;;;;;19.92;46.96;100373.25;4990552;28;7299;-70
2023/07/22 06:04:45;;;;;;;;;;;;;;;20.03;46.29;100372.50;5010646;28;7389;-71
2023/07/22 06:07:10;;;;;;;;;;;;;;;20.14;46.30;100380.41;5006717;28;7299;-71
2023/07/22 06:09:36;;;;;;;;;;;;;;;20.27;46.39;100374.41;5001138;28;6855;-70
2023/07/22 06:12:01;;;;;;;;;;;;;;;20.37;46.03;100380.59;4986037;28;6952;-70
2023/07/22 06:14:27;;;;;;;;;;;;;;;20.48;46.36;100381.53;4998159;28;7155;-70
2023/07/22 06:16:53;;;;;;;;;;;;;;;20.59;46.17;100384.22;4998009;28;7020;-71
2023/07/22 06:19:18;;;;;;;;;;;;;;;20.68;46.10;100385.97;4982751;28;6962;-71
2023/07/22 06:21:44;;;;;;;;;;;;;;;20.76;46.29;100389.50;4992411;28;7319;-70
2023/07/22 06:24:10;;;;;;;;;;;;;;;20.83;46.09;100385.22;5002871;28;7204;-71
2023/07/22 06:26:36;;;;;;;;;;;;;;;20.91;46.02;100385.28;4997825;28;6827;-71
2023/07/22 06:29:02;;;;;;;;;;;;;;;20.98;46.29;100391.41;4994458;28;6808;-70
2023/07/22 06:31:30;;;;;;;;;;;;;;;21.04;46.07;100394.91;4993097;28;6900;-70
2023/07/22 06:33:57;;;;;;;;;;;;;;;21.08;46.28;100401.84;4994190;28;7248;-71
2023/07/22 06:36:23;;;;;;;;;;;;;;;21.13;46.04;100391.44;4994599;28;6997;-70
2023/07/22 06:38:48;;;;;;;;;;;;;;;21.17;45.87;100385.41;5009794;28;6803;-71
2023/07/22 06:41:14;;;;;;;;;;;;;;;21.19;45.67;100391.50;4986667;28;7630;-70
2023/07/22 06:43:40;;;;;;;;;;;;;;;21.19;45.86;100388.88;5005478;28;6800;-70
2023/07/22 06:46:05;;;;;;;;;;;;;;;21.18;45.48;100392.34;5005144;28;6851;-70
2023/07/22 06:48:31;;;;;;;;;;;;;;;21.20;45.69;100392.38;4981676;28;7006;-71
2023/07/22 06:50:56;;;;;;;;;;;;;;;21.25;46.18;100390.63;4995517;28;7581;-71
2023/07/22 06:53:21;;;;;;;;;;;;;;;21.30;45.74;100385.44;4994446;28;7260;-70
2023/07/22 06:55:51;;;;;;;;;;;;;;;21.36;45.93;100385.47;5007667;28;6803;-70
2023/07/22 06:58:18;;;;;;;;;;;;;;;21.46;46.11;100384.63;4969652;28;8560;-71
2023/07/22 07:00:43;;;;;;;;;;;;;;;21.55;46.09;100386.38;4988184;28;6795;-69
2023/07/22 07:03:09;;;;;;;;;;;;;;;21.67;45.98;100385.56;4994832;28;6980;-70
2023/07/22 07:05:34;;;;;;;;;;;;;;;21.75;45.96;100385.56;5011028;28;7265;-70
2023/07/22 07:08:00;;;;;;;;;;;;;;;21.82;45.71;100379.50;5001898;28;7191;-69
2023/07/22 07:10:26;;;;;;;;;;;;;;;21.86;45.57;100373.41;5009331;28;7178;-71
2023/07/22 07:12:51;;;;;;;;;;;;;;;21.95;45.86;100379.50;4988861;28;7221;-70
2023/07/22 07:15:16;;;;;;;;;;;;;;;22.10;46.03;100383.88;5016971;28;6960;-70
2023/07/22 07:17:42;;;;;;;;;;;;;;;22.30;45.65;100384.72;5003768;28;6958;-70
2023/07/22 07:20:08;;;;;;;;;;;;;;;22.54;45.65;100384.72;5013543;28;6783;-71
2023/07/22 07:22:34;;;;;;;;;;;;;;;22.77;45.11;100379.44;5014608;28;6887;-70
2023/07/22 07:24:59;;;;;;;;;;;;;;;23.05;45.14;100376.75;4999405;28;7246;-71
2023/07/22 07:27:25;;;;;;;;;;;;;;;23.34;44.28;100373.16;5006190;28;6844;-70
2023/07/22 07:29:50;;;;;;;;;;;;;;;23.59;44.03;100378.25;5014349;28;6796;-70
2023/07/22 07:32:16;;;;;;;;;;;;;;;23.85;43.70;100375.44;4981265;28;6937;-70
2023/07/22 07:34:41;;;;;;;;;;;;;;;24.07;43.43;100377.06;4999826;28;6783;-70
2023/07/22 07:37:07;;;;;;;;;;;;;;;24.26;42.39;100385.63;5015701;28;6896;-70
2023/07/22 07:39:32;;;;;;;;;;;;;;;24.41;42.33;100380.25;5009978;28;7199;-71
2023/07/22 07:41:58;;;;;;;;;;;;;;;24.54;42.38;100380.13;4982030;28;6971;-71
2023/07/22 07:44:23;;;;;;;;;;;;;;;24.64;41.62;100383.53;5016129;28;6796;-70
2023/07/22 07:46:49;;;;;;;;;;;;;;;24.72;41.73;100386.91;4999839;28;6833;-70
2023/07/22 07:49:14;;;;;;;;;;;;;;;24.84;41.68;100390.31;5017205;28;7271;-71
2023/07/22 07:51:42;;;;;;;;;;;;;;;25.04;41.59;100388.34;5013294;28;6804;-71
2023/07/22 07:54:08;;;;;;;;;;;;;;;25.25;41.42;100386.31;4999958;28;6871;-70
2023/07/22 07:56:33;;;;;;;;;;;;;;;25.36;40.76;100381.78;4997090;28;6788;-71
2023/07/22 07:58:59;;;;;;;;;;;;;;;25.48;40.22;100379.88;5014005;28;7114;-71
2023/07/22 08:01:24;;;;;;;;;;;;;;;25.56;39.53;100388.53;5015018;28;7232;-70
2023/07/22 08:03:50;;;;;;;;;;;;;;;25.59;39.61;100385.91;5000347;28;6973;-70
2023/07/22 08:06:16;;;;;;;;;;;;;;;25.62;39.52;100395.44;5013139;28;6958;-71
2023/07/22 08:08:41;;;;;;;;;;;;;;;25.69;39.63;100385.72;5012654;28;6863;-71
2023/07/22 08:11:09;;;;;;;;;;;;;;;25.84;39.31;100382.03;5014323;28;6784;-71
2023/07/22 08:13:35;;;;;;;;;;;;;;;25.89;38.41;100385.44;4995462;28;7277;-71
2023/07/22 08:16:05;;;;;;;;;;;;;;;25.81;38.50;100390.81;4999569;28;8056;-71
2023/07/22 08:18:31;;;;;;;;;;;;;;;25.79;38.25;100385.56;4998917;28;7067;-71
2023/07/22 08:20:57;;;;;;;;;;;;;;;25.85;38.57;100389.00;4998915;28;6775;-70
2023/07/22 08:23:23;;;;;;;;;;;;;;;25.93;38.65;100390.59;4987371;28;7216;-71
2023/07/22 08:25:49;;;;;;;;;;;;;;;26.10;39.21;100389.47;5015917;28;6784;-70
2023/07/22 08:28:15;;;;;;;;;;;;;;;26.30;38.47;100383.03;5003294;28;6998;-71
2023/07/22 08:30:40;;;;;;;;;;;;;;;26.52;38.43;100382.63;4981240;28;6958;-71
2023/07/22 08:33:09;;;;;;;;;;;;;;;26.70;37.49;100389.28;5012631;28;6783;-70
2023/07/22 08:35:39;;;;;;;;;;;;;;;26.76;37.53;100378.69;4996087;28;7156;-71
2023/07/22 08:38:05;;;;;;;;;;;;;;;26.82;37.55;100380.31;4976689;28;7025;-71
2023/07/22 08:40:38;;;;;;;;;;;;;;;26.82;37.25;100380.31;4995986;28;8634;-71
2023/07/22 08:43:06;;;;;;;;;;;;;;;26.87;36.92;100375.84;4998853;28;6959;-71
2023/07/22 08:45:36;;;;;;;;;;;;;;;26.84;36.22;100371.50;4997649;28;6976;-71
2023/07/22 08:48:11;;;;;;;;;;;;;;;26.80;36.17;100382.13;4983447;28;7085;-71
2023/07/22 08:50:44;;;;;;;;;;;;;;;26.87;35.87;100384.56;4997524;28;6876;-71
2023/07/22 08:53:10;;;;;;;;;;;;;;;26.80;35.86;100379.47;4986761;28;7427;-70
2023/07/22 08:55:36;;;;;;;;;;;;;;;26.62;35.85;100381.56;4991572;28;6847;-71
2023/07/22 08:58:02;;;;;;;;;;;;;;;26.53;36.31;100379.13;4982996;28;7215;-71
2023/07/22 09:00:28;;;;;;;;;;;;;;;26.60;36.50;100376.34;5010521;28;6793;-70
2023/07/22 09:02:54;;;;;;;;;;;;;;;26.75;36.12;100380.44;4986209;28;8381;-71
2023/07/22 09:05:19;;;;;;;;;;;;;;;26.88;35.95;100377.59;5001439;28;7055;-70
2023/07/22 09:07:48;;;;;;;;;;;;;;;27.02;35.27;100377.31;5002767;28;6976;-70
2023/07/22 09:10:15;;;;;;;;;;;;;;;27.10;35.18;100374.53;4995008;28;7128;-70
2023/07/22 09:12:41;;;;;;;;;;;;;;;27.20;34.51;100383.94;5009585;28;6835;-70
2023/07/22 09:15:10;;;;;;;;;;;;;;;27.30;34.95;100374.94;4995841;28;6804;-70
2023/07/22 09:17:36;;;;;;;;;;;;;;;27.47;35.09;100378.09;5013625;28;7236;-70
2023/07/22 09:20:03;;;;;;;;;;;;;;;27.56;34.97;100376.16;4997370;28;6841;-70
2023/07/22 09:22:29;;;;;;;;;;;;;;;27.71;33.90;100379.31;5014070;28;6799;-71
2023/07/22 09:25:13;;;;;;;;;;;;;;;27.93;33.49;100376.19;5003935;28;7071;-71
2023/07/22 09:27:39;;;;;;;;;;;;;;;28.09;33.30;100374.03;5000320;28;6975;-71
2023/07/22 09:30:22;;;;;;;;;;;;;;;28.07;32.78;100370.56;4996886;28;6788;-71
2023/07/22 09:32:48;;;;;;;;;;;;;;;27.96;32.83;100376.09;5014391;28;11764;-71
2023/07/22 09:35:14;;;;;;;;;;;;;;;28.04;33.59;100371.50;4994939;28;7243;-71
2023/07/22 09:37:39;;;;;;;;;;;;;;;28.24;33.77;100371.00;4994872;28;7857;-71
2023/07/22 09:40:26;;;;;;;;;;;;;;;28.42;33.95;100369.66;4996768;28;7009;-71
2023/07/22 09:42:54;;;;;;;;;;;;;;;28.40;33.53;100366.22;4997745;28;6807;-71
2023/07/22 09:45:22;;;;;;;;;;;;;;;28.21;33.31;100367.63;4987532;28;6998;-71
2023/07/22 09:47:50;;;;;;;;;;;;;;;27.94;33.31;100373.50;5019327;28;7232;-71
2023/07/22 09:50:18;;;;;;;;;;;;;;;27.70;33.27;100367.94;4996021;28;7117;-71
2023/07/22 09:52:47;;;;;;;;;;;;;;;27.63;33.60;100376.03;5001230;28;6975;-71
2023/07/22 09:55:18;;;;;;;;;;;;;;;27.69;33.91;100370.59;4995543;28;7092;-71
2023/07/22 09:57:55;;;;;;;;;;;;;;;27.90;33.29;100366.59;4999155;28;7266;-70
2023/07/22 10:00:21;;;;;;;;;;;;;;;28.19;33.51;100369.41;4983644;28;7134;-70
2023/07/22 10:02:49;;;;;;;;;;;;;;;28.41;32.88;100364.44;4986592;28;7405;-71
2023/07/22 10:05:17;;;;;;;;;;;;;;;28.60;32.55;100363.94;4983775;28;7059;-71
2023/07/22 10:07:49;;;;;;;;;;;;;;;28.79;32.27;100361.66;4985658;28;7064;-71
2023/07/22 10:10:19;;;;;;;;;;;;;;;29.00;31.94;100360.16;5002347;28;6827;-71
2023/07/22 10:12:46;;;;;;;;;;;;;;;29.08;31.36;100360.81;5001790;28;6864;-71
2023/07/22 10:15:13;;;;;;;;;;;;;;;29.11;31.17;100358.06;4995353;28;7081;-71
2023/07/22 10:17:41;;;;;;;;;;;;;;;29.10;30.81;100358.13;5014751;28;6958;-71
2023/07/22 10:20:14;;;;;;;;;;;;;;;29.07;30.45;100353.81;4977624;28;7288;-71
2023/07/22 10:22:44;;;;;;;;;;;;;;;29.02;30.37;100345.19;4991206;28;6845;-71
2023/07/22 10:25:12;;;;;;;;;;;;;;;29.04;30.66;100348.63;4994367;28;6800;-71
2023/07/22 10:27:40;;;;;;;;;;;;;;;29.18;31.08;100355.25;5002620;28;7023;-71
2023/07/22 10:30:10;;;;;;;;;;;;;;;29.39;31.11;100343.19;5012023;28;6843;-70
2023/07/22 10:32:38;;;;;;;;;;;;;;;29.57;30.53;100338.25;5012794;28;11555;-71
2023/07/22 10:35:04;;;;;;;;;;;;;;;29.63;30.90;100351.25;4992223;28;6784;-68
2023/07/22 10:37:33;;;;;;;;;;;;;;;29.63;30.10;100338.03;4999982;28;6868;-69
2023/07/22 10:40:00;;;;;;;;;;;;;;;29.52;30.13;100333.97;5003235;28;7268;-69
2023/07/22 10:42:26;;;;;;;;;;;;;;;29.41;30.58;100332.56;4999040;28;6812;-69
2023/07/22 10:44:51;;;;;;;;;;;;;;;29.66;30.10;100335.31;5014079;28;6990;-69
2023/07/22 10:47:36;;;;;;;;;;;;;;;30.30;29.83;100328.75;5015895;28;7346;-68
2023/07/22 10:50:07;;;;;;;;;;;;;;;30.75;29.32;100328.94;5015230;28;6989;-69
2023/07/22 10:52:44;;;;;;;;;;;;;;;31.24;29.29;100313.00;5000129;28;7323;-69
2023/07/22 10:55:19;;;;;;;;;;;;;;;31.39;27.75;100316.81;5016315;28;6958;-69
2023/07/22 10:57:50;;;;;;;;;;;;;;;31.37;26.89;100313.34;5005100;28;7195;-69
2023/07/22 11:00:20;;;;;;;;;;;;;;;31.32;27.25;100310.03;5017119;28;6808;-69
2023/07/22 11:02:48;;;;;;;;;;;;;;;31.33;27.59;100311.75;5012985;28;6807;-69
2023/07/22 11:05:16;;;;;;;;;;;;;;;31.38;27.08;100308.91;5002093;28;7532;-69
2023/07/22 11:07:47;;;;;;;;;;;;;;;31.68;27.51;100301.50;5013226;28;6808;-69
2023/07/22 11:10:17;;;;;;;;;;;;;;;32.16;26.79;100301.25;5017773;28;7217;-69
2023/07/22 11:12:45;;;;;;;;;;;;;;;32.47;25.46;100291.94;5000753;28;6800;-69
2023/07/22 11:15:10;;;;;;;;;;;;;;;32.58;25.29;100294.09;5016724;28;6807;-69
2023/07/22 11:17:37;;;;;;;;;;;;;;;32.64;25.01;100303.56;5000289;28;7333;-69
2023/07/22 11:20:04;;;;;;;;;;;;;;;32.76;25.22;100296.81;5005916;28;6799;-69
2023/07/22 11:22:29;;;;;;;;;;;;;;;32.82;24.81;100297.38;5015504;28;7266;-69
2023/07/22 11:24:57;;;;;;;;;;;;;;;33.00;24.70;100292.19;5015964;28;6856;-69
2023/07/22 11:27:23;;;;;;;;;;;;;;;33.45;24.11;100275.88;4987908;28;7005;-69
2023/07/22 11:29:49;;;;;;;;;;;;;;;33.80;23.86;100292.69;5002219;28;6962;-69
2023/07/22 11:32:21;;;;;;;;;;;;;;;33.87;23.04;100289.72;5001711;28;6792;-69
2023/07/22 11:34:47;;;;;;;;;;;;;;;33.76;23.36;100288.50;5005769;28;6999;-69
2023/07/22 11:37:14;;;;;;;;;;;;;;;33.94;22.86;100288.44;5004016;28;6791;-69
2023/07/22 11:39:41;;;;;;;;;;;;;;;33.98;21.76;100284.72;5000110;28;7309;-69
2023/07/22 11:42:07;;;;;;;;;;;;;;;33.99;21.68;100290.88;5012570;28;7034;-69
2023/07/22 11:44:33;;;;;;;;;;;;;;;34.00;21.85;100287.34;5015223;28;7193;-69
2023/07/22 11:47:03;;;;;;;;;;;;;;;34.15;22.43;100285.66;4996687;28;7110;-69
2023/07/22 11:49:43;;;;;;;;;;;;;;;34.58;21.94;100287.84;5005803;28;6820;-69
2023/07/22 11:52:11;;;;;;;;;;;;;;;34.86;21.08;100270.31;5002998;28;6816;-69
2023/07/22 11:54:39;;;;;;;;;;;;;;;34.96;21.08;100275.97;4995169;28;7280;-69
2023/07/22 11:57:14;;;;;;;;;;;;;;;34.94;20.29;100265.41;4996225;28;6816;-69
2023/07/22 11:59:45;;;;;;;;;;;;;;;34.97;20.81;100270.59;4983592;28;8533;-69
2023/07/22 12:02:19;;;;;;;;;;;;;;;34.83;20.99;100267.81;4986161;28;7002;-69
2023/07/22 12:04:59;;;;;;;;;;;;;;;34.63;20.15;100267.13;4999560;28;6796;-69
2023/07/22 12:07:30;;;;;;;;;;;;;;;34.10;20.51;100267.31;4998504;28;6812;-69
2023/07/22 12:09:57;;;;;;;;;;;;;;;33.74;21.25;100265.59;5002071;28;6800;-69
2023/07/22 12:12:48;;;;;;;;;;;;;;;33.63;21.56;100264.34;5018801;28;6820;-69
2023/07/22 12:15:16;;;;;;;;;;;;;;;33.87;21.83;100255.19;4998253;28;6827;-69
2023/07/22 12:17:48;;;;;;;;;;;;;;;34.04;21.42;100259.63;5004050;28;7045;-69
2023/07/22 12:20:15;;;;;;;;;;;;;;;34.30;21.93;100258.22;5014326;28;6807;-68
2023/07/22 12:22:41;;;;;;;;;;;;;;;34.73;21.34;100254.19;5015217;28;6867;-69
2023/07/22 12:25:07;;;;;;;;;;;;;;;34.90;20.57;100245.25;4994694;28;7046;-69
2023/07/22 12:27:32;;;;;;;;;;;;;;;34.83;20.60;100244.75;4997343;28;6796;-69
2023/07/22 12:29:58;;;;;;;;;;;;;;;34.94;21.27;100244.13;5014819;28;6796;-70
2023/07/22 12:32:23;;;;;;;;;;;;;;;35.14;20.80;100243.00;5013748;28;6791;-69
2023/07/22 12:34:49;;;;;;;;;;;;;;;35.27;19.86;100242.28;4995289;28;7240;-70
2023/07/22 12:37:14;;;;;;;;;;;;;;;35.28;20.41;100234.22;4997825;28;7840;-69
2023/07/22 12:39:40;;;;;;;;;;;;;;;35.30;20.14;100234.97;5002776;28;6966;-69
2023/07/22 12:42:05;;;;;;;;;;;;;;;35.33;19.78;100241.06;5014473;28;6817;-69
2023/07/22 12:44:31;;;;;;;;;;;;;;;35.15;20.34;100225.22;5012170;28;6791;-69
2023/07/22 12:46:57;;;;;;;;;;;;;;;35.14;20.40;100240.34;5014849;28;7028;-69